Time;durP1;ratioP1;P1;durP2;ratioP2;P2;SDS_P1;SDS_P2;PMS_P1;PMS_P2;Temp;Humidity;BMP_temperature;BMP_pressure;BME280_temperature;BME280_humidity;BME280_pressure;Samples;Min_cycle;Max_cycle;Signal;HPM_P1;HPM_P2
2022/01/31 00:01:23;;;;;;;14.43;4.97;;;2.90;77.00;;;3.28;59.86;98028.94;5110896;28;20059;-37
2022/01/31 00:03:51;;;;;;;9.13;3.57;;;2.90;77.30;;;3.25;60.06;98029.16;5110145;28;20035;-38
2022/01/31 00:06:19;;;;;;;12.13;4.97;;;2.80;77.30;;;3.24;60.06;98030.09;5109928;28;20053;-37
2022/01/31 00:08:48;;;;;;;7.93;3.03;;;2.90;77.60;;;3.25;60.33;98026.50;5110466;28;20336;-37
2022/01/31 00:11:16;;;;;;;13.33;4.90;;;2.90;77.40;;;3.26;60.63;98024.75;5092376;28;20044;-38
2022/01/31 00:13:54;;;;;;;14.60;3.83;;;2.90;77.40;;;3.27;60.53;98027.25;5109251;28;20268;-37
2022/01/31 00:16:25;;;;;;;9.40;3.37;;;2.90;77.40;;;3.25;60.29;98015.97;5109586;28;20061;-37
2022/01/31 00:18:53;;;;;;;6.57;3.00;;;2.80;77.50;;;3.22;60.77;98013.59;5110294;28;20057;-37
2022/01/31 00:21:20;;;;;;;12.30;3.40;;;2.80;78.00;;;3.23;60.90;98014.41;5108485;28;20051;-37
2022/01/31 00:23:48;;;;;;;7.70;3.57;;;2.80;78.20;;;3.20;60.47;97993.56;5109081;28;20043;-37
2022/01/31 00:26:17;;;;;;;11.87;3.27;;;2.90;78.00;;;3.21;60.92;97985.56;5108599;28;20052;-38
2022/01/31 00:28:45;;;;;;;10.13;3.37;;;2.90;78.20;;;3.26;60.34;97980.84;5110040;28;20052;-38
2022/01/31 00:31:14;;;;;;;9.57;3.33;;;2.90;77.90;;;3.29;60.84;97988.50;5108914;28;20055;-37
2022/01/31 00:33:42;;;;;;;5.63;3.23;;;3.00;77.60;;;3.30;60.90;97987.56;5092340;28;20061;-37
2022/01/31 00:36:09;;;;;;;8.07;3.07;;;3.10;77.40;;;3.32;60.46;97998.00;5109142;28;20121;-38
2022/01/31 00:38:37;;;;;;;7.50;3.20;;;3.10;77.20;;;3.32;60.89;97998.81;5108645;28;20057;-37
2022/01/31 00:41:05;;;;;;;8.53;2.83;;;3.10;77.10;;;3.35;60.93;97976.72;5109736;28;20264;-38
2022/01/31 00:43:35;;;;;;;6.17;3.00;;;3.10;77.20;;;3.37;60.84;97959.00;5107484;28;20043;-37
2022/01/31 00:46:11;;;;;;;11.10;3.40;;;3.10;77.20;;;3.34;60.80;97967.16;5110006;28;20051;-37
2022/01/31 00:48:45;;;;;;;13.73;3.30;;;3.10;77.10;;;3.32;60.61;97956.72;5108001;28;20043;-37
2022/01/31 00:51:13;;;;;;;11.40;3.65;;;3.10;77.10;;;3.32;61.02;97935.66;5108374;28;20050;-37
2022/01/31 00:53:43;;;;;;;12.23;4.07;;;3.00;77.10;;;3.29;60.67;97924.50;5109063;28;20062;-37
2022/01/31 00:56:11;;;;;;;7.33;3.37;;;3.00;77.60;;;3.28;60.84;97921.06;5090920;28;20047;-37
2022/01/31 00:58:40;;;;;;;10.00;3.67;;;3.00;77.80;;;3.27;60.81;97921.16;5108432;28;20088;-37
2022/01/31 01:01:08;;;;;;;9.20;4.37;;;2.90;78.30;;;3.25;60.55;97923.88;5108314;28;20052;-37
2022/01/31 01:03:37;;;;;;;9.27;3.17;;;2.90;78.40;;;3.25;60.73;97921.25;5091303;28;20323;-37
2022/01/31 01:06:05;;;;;;;11.67;3.50;;;2.90;78.60;;;3.24;60.99;97914.31;5108203;28;20054;-37
2022/01/31 01:08:33;;;;;;;10.73;4.37;;;3.00;78.30;;;3.26;60.99;97909.78;5089514;28;20250;-37
2022/01/31 01:11:00;;;;;;;5.43;3.10;;;3.00;77.90;;;3.29;61.28;97906.94;5108774;28;20050;-37
2022/01/31 01:13:28;;;;;;;10.03;3.23;;;3.10;77.70;;;3.33;60.77;97916.31;5090367;28;20058;-37
2022/01/31 01:15:56;;;;;;;6.63;3.33;;;3.10;77.40;;;3.38;60.60;97900.19;5106593;28;20246;-37
2022/01/31 01:18:24;;;;;;;6.10;3.13;;;3.20;77.80;;;3.41;61.00;97894.69;5091864;28;20105;-37
2022/01/31 01:20:53;;;;;;;9.80;3.63;;;3.20;77.40;;;3.43;60.84;97882.28;5089519;28;20250;-37
2022/01/31 01:23:21;;;;;;;9.60;3.27;;;3.20;77.10;;;3.43;61.17;97863.84;5108740;28;20047;-37
2022/01/31 01:25:49;;;;;;;9.97;3.50;;;3.20;77.10;;;3.44;60.53;97844.47;5105657;28;20043;-37
2022/01/31 01:28:20;;;;;;;6.80;3.17;;;3.20;77.20;;;3.43;60.68;97842.78;5090699;28;20063;-37
2022/01/31 01:30:49;;;;;;;12.10;3.30;;;3.10;77.50;;;3.39;60.53;97829.94;5089970;28;20052;-37
2022/01/31 01:33:22;;;;;;;8.27;3.37;;;3.00;78.20;;;3.37;60.84;97824.78;5090142;28;20055;-37
2022/01/31 01:35:54;;;;;;;10.70;3.40;;;3.00;78.50;;;3.38;61.10;97823.03;5107569;28;20059;-37
2022/01/31 01:38:28;;;;;;;5.07;3.30;;;3.00;78.70;;;3.40;61.27;97805.31;5108484;28;20246;-37
2022/01/31 01:40:59;;;;;;;7.77;3.27;;;3.00;78.40;;;3.41;61.32;97804.34;5088746;28;20051;-37
2022/01/31 01:43:32;;;;;;;11.03;3.07;;;3.00;78.80;;;3.40;61.34;97793.00;5089158;28;20064;-37
2022/01/31 01:46:01;;;;;;;12.17;3.43;;;3.00;78.90;;;3.41;61.50;97756.97;5088920;28;20055;-37
2022/01/31 01:48:33;;;;;;;7.53;3.03;;;3.00;78.90;;;3.43;61.12;97729.63;5091126;28;20070;-39
2022/01/31 01:51:02;;;;;;;7.37;2.73;;;3.10;79.00;;;3.44;61.15;97728.66;5089902;28;20336;-39
2022/01/31 01:53:31;;;;;;;10.07;2.43;;;3.10;79.00;;;3.48;61.18;97708.19;5090521;28;20049;-39
2022/01/31 01:55:59;;;;;;;9.63;2.63;;;3.20;78.50;;;3.51;61.35;97700.91;5106583;28;20063;-39
2022/01/31 01:58:39;;;;;;;5.80;2.57;;;3.20;78.60;;;3.52;60.91;97691.22;5090069;28;20070;-37
2022/01/31 02:01:11;;;;;;;10.23;3.07;;;3.20;78.70;;;3.54;61.54;97684.88;5089630;28;20362;-37
2022/01/31 02:03:49;;;;;;;7.93;3.43;;;3.20;78.90;;;3.53;61.42;97670.06;5088785;28;20059;-37
2022/01/31 02:06:19;;;;;;;5.67;3.00;;;3.20;79.10;;;3.54;61.24;97668.25;5089673;28;20054;-37
2022/01/31 02:08:48;;;;;;;8.80;2.70;;;3.20;79.10;;;3.56;61.07;97661.06;5087999;28;20055;-37
2022/01/31 02:11:21;;;;;;;9.88;2.90;;;3.20;78.90;;;3.55;61.08;97662.88;5073132;28;20059;-37
2022/01/31 02:13:52;;;;;;;5.53;2.70;;;3.20;79.10;;;3.57;61.57;97667.16;5088377;28;20062;-37
2022/01/31 02:16:32;;;;;;;5.97;3.00;;;3.30;78.80;;;3.60;61.15;97648.53;5109134;28;20257;-37
2022/01/31 02:19:19;;;;;;;6.85;2.97;;;3.30;78.60;;;3.60;61.43;97653.78;5089559;28;20073;-37
2022/01/31 02:22:04;;;;;;;9.77;3.27;;;3.30;78.60;;;3.60;60.94;97645.88;5087511;28;20061;-37
2022/01/31 02:24:55;;;;;;;9.50;2.90;;;3.40;78.00;;;3.57;61.34;97646.09;5087833;28;20064;-37
2022/01/31 02:27:49;;;;;;;10.77;3.42;;;3.40;77.70;;;3.57;61.09;97636.44;5090500;28;20067;-37
2022/01/31 02:30:18;;;;;;;6.17;2.90;;;3.40;77.50;;;3.56;61.06;97647.91;5088791;28;20059;-37
2022/01/31 02:32:47;;;;;;;7.30;2.77;;;3.40;77.50;;;3.55;61.41;97639.19;5087868;28;20406;-37
2022/01/31 02:35:16;;;;;;;6.70;2.70;;;3.40;77.10;;;3.57;60.83;97632.94;5073822;28;20241;-37
2022/01/31 02:37:44;;;;;;;7.27;3.03;;;3.40;77.10;;;3.57;61.08;97617.16;5088629;28;20070;-37
2022/01/31 02:40:29;;;;;;;9.13;3.10;;;3.40;76.90;;;3.54;61.18;97595.38;5088199;28;20055;-37
2022/01/31 02:43:01;;;;;;;8.87;3.00;;;3.30;77.30;;;3.54;60.83;97584.84;5088984;28;20051;-37
2022/01/31 02:45:31;;;;;;;10.27;3.20;;;3.30;78.00;;;3.53;60.83;97582.34;5106894;28;20039;-37
2022/01/31 02:48:02;;;;;;;10.67;4.57;;;3.20;77.90;;;3.54;60.87;97584.00;5089870;28;20058;-37
2022/01/31 02:50:33;;;;;;;6.43;3.43;;;3.20;78.00;;;3.52;61.38;97570.13;5089197;28;20055;-37
2022/01/31 02:55:43;;;;;;;9.40;4.27;;;3.20;77.90;;;3.49;60.87;97522.97;5089317;28;20059;-39
2022/01/31 02:58:12;;;;;;;8.43;3.40;;;3.20;78.10;;;3.44;61.23;97520.72;5088459;28;20052;-39
2022/01/31 03:00:41;;;;;;;6.23;2.93;;;3.00;78.60;;;3.44;61.30;97518.09;5087427;28;20057;-39
2022/01/31 03:03:18;;;;;;;10.53;3.23;;;3.10;78.60;;;3.40;61.19;97527.19;5088296;28;20368;-39
2022/01/31 03:05:46;;;;;;;5.70;2.63;;;3.10;78.50;;;3.40;61.66;97521.91;5106373;28;20052;-39
2022/01/31 03:08:16;;;;;;;7.30;3.03;;;3.20;77.90;;;3.42;61.00;97506.00;5107008;28;20058;-39
2022/01/31 03:10:44;;;;;;;6.30;2.77;;;3.20;77.60;;;3.46;61.39;97484.59;5090267;28;20058;-39
2022/01/31 03:13:19;;;;;;;8.80;2.90;;;3.30;77.60;;;3.51;61.14;97479.81;5092882;28;20069;-39
2022/01/31 03:15:52;;;;;;;8.63;2.90;;;3.30;77.50;;;3.54;60.79;97461.13;5091668;28;20051;-39
2022/01/31 03:18:40;;;;;;;8.87;2.93;;;3.40;77.20;;;3.60;61.44;97461.59;5110004;28;20070;-39
2022/01/31 03:21:08;;;;;;;10.27;3.00;;;3.40;76.80;;;3.65;60.63;97459.44;5091330;28;20062;-39
2022/01/31 03:23:36;;;;;;;5.30;2.50;;;3.50;76.60;;;3.70;60.94;97437.06;5091913;28;20064;-39
2022/01/31 03:26:04;;;;;;;8.93;3.47;;;3.50;76.60;;;3.70;60.86;97413.38;5111446;28;20054;-39
2022/01/31 03:28:32;;;;;;;8.03;2.90;;;3.50;76.50;;;3.71;61.37;97404.50;5111101;28;20051;-39
2022/01/31 03:31:00;;;;;;;7.63;3.03;;;3.50;76.80;;;3.72;60.71;97389.53;5110028;28;20044;-39
2022/01/31 03:33:27;;;;;;;11.33;3.53;;;3.50;76.60;;;3.69;60.99;97377.44;5091674;28;20055;-39
2022/01/31 03:35:55;;;;;;;6.33;2.40;;;3.40;76.80;;;3.69;60.82;97372.19;5091917;28;20391;-39
2022/01/31 03:38:23;;;;;;;7.13;2.70;;;3.40;77.20;;;3.70;60.65;97389.66;5092293;28;20047;-39
2022/01/31 03:40:51;;;;;;;5.53;2.20;;;3.50;76.50;;;3.70;60.53;97415.16;5093009;28;20470;-39
2022/01/31 03:43:19;;;;;;;4.77;2.37;;;3.60;75.60;;;3.74;60.98;97430.59;5109858;28;20074;-39
2022/01/31 03:45:49;;;;;;;6.23;2.30;;;3.60;75.50;;;3.80;60.46;97416.09;5093682;28;20431;-39
2022/01/31 03:48:24;;;;;;;4.50;2.10;;;3.80;75.10;;;3.83;60.67;97426.34;5092327;28;20361;-39
2022/01/31 03:50:59;;;;;;;10.37;2.60;;;3.70;75.20;;;3.88;60.45;97408.41;5093382;28;20062;-39
2022/01/31 03:53:31;;;;;;;6.47;2.97;;;3.80;75.00;;;3.94;60.54;97409.69;5092820;28;20054;-39
2022/01/31 03:55:59;;;;;;;7.77;3.07;;;3.90;74.90;;;3.96;60.29;97401.69;5092271;28;20059;-39
2022/01/31 03:58:33;;;;;;;4.45;2.03;;;3.90;74.30;;;3.98;60.57;97391.84;5091342;28;20069;-39
2022/01/31 04:01:09;;;;;;;6.67;2.30;;;4.00;74.20;;;4.02;59.97;97399.38;5091745;28;20524;-39
2022/01/31 04:03:37;;;;;;;7.13;2.40;;;4.00;74.60;;;3.91;60.03;97381.78;5110167;28;20199;-39
2022/01/31 04:06:05;;;;;;;10.23;2.70;;;4.00;73.90;;;4.03;59.86;97393.16;5108973;28;20055;-39
2022/01/31 04:08:33;;;;;;;6.23;2.90;;;4.00;74.20;;;4.01;60.21;97384.50;5109606;28;20333;-39
2022/01/31 04:11:01;;;;;;;10.03;3.37;;;4.10;74.90;;;4.06;60.59;97378.88;5109934;28;20054;-39
2022/01/31 04:13:29;;;;;;;6.87;3.17;;;4.10;74.20;;;4.00;60.25;97384.66;5110092;28;20050;-39
2022/01/31 04:15:56;;;;;;;5.87;2.93;;;4.10;73.60;;;4.06;60.17;97369.16;5108610;28;20046;-39
2022/01/31 04:18:25;;;;;;;5.83;2.63;;;4.20;73.70;;;4.13;60.56;97361.59;5108399;28;20047;-39
2022/01/31 04:20:53;;;;;;;7.63;4.33;;;4.20;73.60;;;4.14;59.88;97350.91;5109222;28;20418;-39
2022/01/31 04:23:23;;;;;;;10.20;4.90;;;4.30;73.00;;;4.17;60.08;97349.84;5108286;28;20055;-39
2022/01/31 04:25:54;;;;;;;8.03;2.83;;;4.30;73.20;;;4.20;59.69;97346.09;5105827;28;20465;-39
2022/01/31 04:28:30;;;;;;;10.30;2.97;;;4.30;73.30;;;4.16;60.49;97344.69;5108909;28;20051;-39
2022/01/31 04:33:47;;;;;;;9.27;3.00;;;4.30;73.10;;;4.26;59.88;97327.13;5110425;28;20050;-39
2022/01/31 04:36:16;;;;;;;5.30;2.90;;;4.40;73.30;;;4.27;59.48;97318.28;5108838;28;20064;-39
2022/01/31 04:38:46;;;;;;;8.70;2.87;;;4.40;72.90;;;4.32;59.36;97305.53;5109683;28;20059;-39
2022/01/31 04:41:15;;;;;;;7.17;2.23;;;4.50;72.80;;;4.30;59.69;97304.81;5109432;28;20081;-39
2022/01/31 04:43:45;;;;;;;5.13;2.80;;;4.50;72.60;;;4.32;59.09;97287.94;5108931;28;20036;-37
2022/01/31 04:46:13;;;;;;;6.07;1.93;;;4.50;72.40;;;4.26;59.50;97283.16;5109597;28;20038;-37
2022/01/31 04:48:44;;;;;;;8.83;2.90;;;4.50;72.00;;;4.31;59.99;97272.25;5109926;28;20065;-37
2022/01/31 04:51:13;;;;;;;5.53;2.80;;;4.50;72.40;;;4.36;59.41;97266.56;5109830;28;20054;-37
2022/01/31 04:53:41;;;;;;;6.97;2.47;;;4.50;72.10;;;4.43;59.67;97244.00;5108879;28;20596;-36
2022/01/31 04:56:09;;;;;;;6.13;2.47;;;4.60;72.10;;;4.43;59.24;97254.53;5108100;28;20055;-36
2022/01/31 04:58:37;;;;;;;8.23;2.40;;;4.60;71.50;;;4.42;59.15;97240.53;5108680;28;20381;-36
2022/01/31 05:01:05;;;;;;;6.27;2.33;;;4.70;71.40;;;4.41;59.10;97225.69;5109527;28;20057;-36
2022/01/31 05:03:33;;;;;;;8.20;2.73;;;4.60;71.10;;;4.38;59.74;97218.06;5107950;28;20062;-38
2022/01/31 05:06:00;;;;;;;8.47;2.73;;;4.60;71.70;;;4.48;59.78;97210.19;5107370;28;20042;-38
2022/01/31 05:08:29;;;;;;;6.43;2.73;;;4.70;72.10;;;4.51;59.38;97188.81;5109223;28;20043;-39
2022/01/31 05:10:57;;;;;;;11.53;2.50;;;4.70;72.30;;;4.50;59.61;97173.97;5107900;28;20751;-39
2022/01/31 05:13:25;;;;;;;9.83;2.47;;;4.80;72.10;;;4.58;59.82;97152.22;5107809;28;20381;-39
2022/01/31 05:15:55;;;;;;;10.03;2.17;;;4.80;72.50;;;4.51;59.99;97147.44;5108437;28;20042;-39
2022/01/31 05:18:23;;;;;;;6.47;3.00;;;4.70;72.20;;;4.50;60.15;97145.81;5108629;28;20036;-39
2022/01/31 05:20:51;;;;;;;4.57;2.10;;;4.70;72.50;;;4.42;60.36;97127.19;5107753;28;20046;-39
2022/01/31 05:23:19;;;;;;;6.97;2.50;;;4.70;72.30;;;4.42;60.15;97132.47;5107797;28;20035;-39
2022/01/31 05:25:47;;;;;;;7.83;3.30;;;4.70;71.80;;;4.50;59.71;97145.81;5109402;28;20046;-36
2022/01/31 05:28:15;;;;;;;9.77;2.60;;;4.70;72.30;;;4.53;59.79;97134.13;5108546;28;20236;-36
2022/01/31 05:30:43;;;;;;;10.07;2.97;;;4.80;72.10;;;4.62;59.56;97143.88;5107384;28;20089;-36
2022/01/31 05:33:11;;;;;;;10.90;2.50;;;4.80;72.00;;;4.59;59.32;97130.97;5108481;28;20040;-36
2022/01/31 05:35:39;;;;;;;5.37;2.80;;;4.90;71.60;;;4.66;59.34;97110.16;5107740;28;20038;-39
2022/01/31 05:38:07;;;;;;;8.53;3.27;;;4.90;71.50;;;4.68;59.48;97111.69;5107952;28;20058;-38
2022/01/31 05:40:35;;;;;;;7.27;2.90;;;4.90;71.70;;;4.74;59.42;97091.84;5107707;28;20059;-38
2022/01/31 05:43:02;;;;;;;6.20;3.40;;;4.90;71.60;;;4.77;59.15;97075.75;5107594;28;20047;-38
2022/01/31 05:45:30;;;;;;;8.47;3.13;;;5.00;71.30;;;4.75;59.14;97082.97;5108415;28;20054;-38
2022/01/31 05:47:58;;;;;;;12.37;3.10;;;5.00;70.70;;;4.71;58.63;97089.47;5107664;28;20352;-38
2022/01/31 05:50:26;;;;;;;10.63;3.77;;;5.00;70.20;;;4.82;59.52;97084.06;5106365;28;20031;-39
2022/01/31 05:52:54;;;;;;;7.73;2.57;;;5.00;71.00;;;4.78;58.85;97066.03;5106441;28;20062;-36
2022/01/31 05:55:22;;;;;;;9.20;2.63;;;5.00;70.90;;;4.81;58.47;97069.22;5089280;28;20226;-36
2022/01/31 05:57:50;;;;;;;8.70;2.90;;;5.00;70.70;;;4.82;58.74;97073.53;5108274;28;20035;-36
2022/01/31 06:00:22;;;;;;;6.97;3.10;;;5.10;70.90;;;4.88;58.65;97062.41;5109243;28;20074;-36
2022/01/31 06:02:58;;;;;;;7.20;2.60;;;5.10;71.30;;;4.79;59.22;97057.13;5107740;28;20058;-36
2022/01/31 06:05:27;;;;;;;10.90;4.30;;;5.10;71.00;;;4.81;59.44;97055.19;5105835;28;20051;-36
2022/01/31 06:07:55;;;;;;;8.17;2.47;;;5.00;71.90;;;4.91;59.43;97056.03;5108378;28;20590;-38
2022/01/31 06:10:24;;;;;;;6.23;2.53;;;5.10;72.70;;;4.80;60.72;97043.81;5108234;28;20058;-39
2022/01/31 06:12:52;;;;;;;8.00;2.70;;;5.00;73.40;;;4.83;60.35;97040.09;5107291;28;20045;-38
2022/01/31 06:15:20;;;;;;;11.57;3.93;;;5.00;73.60;;;4.86;60.42;97048.53;5107570;28;20073;-39
2022/01/31 06:17:48;;;;;;;7.80;3.00;;;5.00;74.30;;;4.88;60.80;97035.19;5107261;28;20051;-38
2022/01/31 06:20:16;;;;;;;9.63;3.87;;;5.10;74.80;;;4.91;61.20;97032.28;5106738;28;20051;-39
2022/01/31 06:22:47;;;;;;;10.33;3.87;;;5.10;75.00;;;4.89;61.86;97032.44;5107744;28;20048;-36
2022/01/31 06:25:15;;;;;;;8.43;3.30;;;5.10;75.70;;;4.85;62.00;97025.78;5106883;28;20406;-36
2022/01/31 06:27:43;;;;;;;7.33;2.70;;;4.90;76.20;;;4.85;61.77;97031.06;5106352;28;20043;-36
2022/01/31 06:30:12;;;;;;;8.77;3.20;;;5.00;77.20;;;4.82;62.92;97027.84;5090006;28;20043;-36
2022/01/31 06:32:44;;;;;;;6.57;2.87;;;4.90;78.30;;;4.80;63.14;97038.53;5089587;28;20238;-36
2022/01/31 06:35:13;;;;;;;6.27;2.93;;;5.00;80.00;;;4.80;63.56;97027.16;5108257;28;20326;-38
2022/01/31 06:37:40;;;;;;;5.73;2.67;;;4.90;80.60;;;4.88;62.80;97019.38;5106767;28;20069;-38
2022/01/31 06:40:09;;;;;;;6.27;3.03;;;4.90;80.50;;;4.89;63.57;97024.53;5107576;28;20261;-38
2022/01/31 06:42:37;;;;;;;5.87;3.60;;;4.90;81.80;;;4.86;64.32;97034.50;5107170;28;20059;-38
2022/01/31 06:45:05;;;;;;;8.13;2.37;;;4.90;83.50;;;4.75;64.36;97043.41;5106679;28;20358;-42
2022/01/31 06:47:33;;;;;;;8.93;2.50;;;4.80;83.70;;;4.63;65.12;97042.69;5107886;28;20078;-36
2022/01/31 06:50:04;;;;;;;8.53;2.97;;;4.70;86.60;;;4.56;65.99;97032.88;5106551;28;20260;-36
2022/01/31 06:52:35;;;;;;;8.63;3.80;;;4.60;89.60;;;4.58;65.60;97044.94;5107663;28;20043;-36
2022/01/31 06:55:07;;;;;;;8.47;3.70;;;4.60;89.10;;;4.59;65.08;97043.94;5105319;28;20269;-36
2022/01/31 06:57:35;;;;;;;7.03;2.87;;;4.60;90.10;;;4.56;65.41;97041.59;5105018;28;20046;-36
2022/01/31 07:00:08;;;;;;;4.27;2.30;;;4.60;90.80;;;4.57;65.72;97035.34;5106263;28;20059;-36
2022/01/31 07:02:36;;;;;;;5.53;2.33;;;4.60;92.10;;;4.53;66.08;97036.59;5106288;28;20350;-36
2022/01/31 07:05:05;;;;;;;5.73;2.93;;;4.60;93.70;;;4.60;65.75;97035.09;5106882;28;20055;-35
2022/01/31 07:07:33;;;;;;;5.93;2.57;;;4.60;93.70;;;4.65;65.63;97032.03;5105684;28;20043;-36
2022/01/31 07:10:02;;;;;;;6.37;2.47;;;4.60;94.60;;;4.62;66.09;97016.50;5107330;28;20052;-35
2022/01/31 07:12:33;;;;;;;5.17;2.67;;;4.60;94.60;;;4.57;67.08;97026.63;5106015;28;20061;-36
2022/01/31 07:15:03;;;;;;;5.77;2.87;;;4.60;95.90;;;4.58;66.29;97038.84;5106564;28;20050;-36
2022/01/31 07:17:31;;;;;;;4.07;2.57;;;4.60;97.90;;;4.51;66.73;97035.91;5106514;28;20047;-36
2022/01/31 07:19:59;;;;;;;4.77;2.43;;;4.50;99.90;;;4.40;67.28;97047.44;5106996;28;20031;-36
2022/01/31 07:22:34;;;;;;;5.70;2.37;;;4.30;99.90;;;4.38;67.59;97044.09;5104410;28;20343;-36
2022/01/31 07:25:09;;;;;;;6.40;2.60;;;4.40;99.90;;;4.41;67.59;97037.72;5106367;28;20056;-36
2022/01/31 07:27:37;;;;;;;3.23;1.70;;;4.40;99.90;;;4.42;67.42;97036.72;5104764;28;20064;-36
2022/01/31 07:30:05;;;;;;;5.03;2.40;;;4.40;99.90;;;4.49;66.89;97056.31;5106142;28;20070;-36
2022/01/31 07:32:35;;;;;;;3.53;1.90;;;4.50;99.90;;;4.49;67.55;97059.75;5106640;28;20050;-36
2022/01/31 07:35:03;;;;;;;4.30;1.90;;;4.50;99.90;;;4.47;67.01;97052.97;5106360;28;20048;-36
2022/01/31 07:37:31;;;;;;;4.03;2.10;;;4.50;99.90;;;4.40;67.46;97062.38;5106375;28;20048;-39
2022/01/31 07:39:59;;;;;;;3.97;1.90;;;4.40;99.90;;;4.38;68.13;97059.91;5106493;28;20268;-39
2022/01/31 07:42:26;;;;;;;2.40;1.33;;;4.40;99.90;;;4.28;68.24;97054.59;5070663;28;20051;-39
2022/01/31 07:44:56;;;;;;;2.80;1.30;;;4.30;99.90;;;4.30;67.79;97057.09;5105694;28;20365;-39
2022/01/31 07:47:33;;;;;;;3.07;1.77;;;4.30;99.90;;;4.27;68.16;97065.31;5105174;28;20055;-39
2022/01/31 07:50:04;;;;;;;2.67;1.43;;;4.40;99.90;;;4.36;67.83;97068.91;5103733;28;20035;-39
2022/01/31 07:52:33;;;;;;;3.93;1.33;;;4.40;99.90;;;4.14;68.68;97068.19;5104307;28;20371;-39
2022/01/31 07:55:01;;;;;;;2.17;1.40;;;4.30;99.90;;;4.13;69.30;97064.72;5106326;28;20052;-39
2022/01/31 07:57:29;;;;;;;1.33;0.97;;;4.30;99.90;;;4.08;68.92;97063.44;5108898;28;20054;-40
2022/01/31 08:00:05;;;;;;;1.17;0.90;;;4.20;99.90;;;4.08;69.81;97053.75;5110300;28;20054;-39
2022/01/31 08:02:40;;;;;;;2.77;1.30;;;4.20;99.90;;;3.97;70.03;97039.84;5110971;28;20043;-39
2022/01/31 08:05:09;;;;;;;2.43;1.40;;;4.20;99.90;;;4.08;69.95;97051.09;5109597;28;20055;-39
2022/01/31 08:07:38;;;;;;;6.13;1.90;;;4.30;99.90;;;4.08;69.66;97051.09;5111394;28;20403;-39
2022/01/31 08:10:07;;;;;;;1.67;1.37;;;4.30;99.90;;;4.16;69.96;97060.97;5109638;28;20063;-39
2022/01/31 08:12:36;;;;;;;3.27;1.30;;;4.30;99.90;;;4.07;70.12;97065.25;5110172;28;20047;-39
2022/01/31 08:15:07;;;;;;;1.20;1.00;;;4.20;99.90;;;3.97;70.49;97072.28;5109827;28;20056;-39
2022/01/31 08:17:35;;;;;;;5.13;1.37;;;4.10;99.90;;;3.97;70.47;97056.47;5110157;28;20055;-39
2022/01/31 08:20:04;;;;;;;2.07;1.53;;;4.20;99.90;;;3.91;70.84;97057.84;5107252;28;20055;-39
2022/01/31 08:22:31;;;;;;;1.10;0.93;;;4.10;99.90;;;3.97;70.20;97072.28;5107981;28;20073;-39
2022/01/31 08:24:59;;;;;;;1.60;1.00;;;4.20;99.90;;;3.94;70.76;97068.13;5108329;28;20056;-39
2022/01/31 08:27:27;;;;;;;1.50;1.40;;;4.20;99.90;;;3.85;70.89;97068.09;5109871;28;20058;-39
2022/01/31 08:30:05;;;;;;;2.43;1.50;;;4.00;99.90;;;3.86;71.27;97059.25;5109945;28;20051;-39
2022/01/31 08:32:43;;;;;;;2.73;2.00;;;4.00;99.90;;;3.82;71.23;97086.78;5108466;28;20070;-39
2022/01/31 08:37:59;;;;;;;4.37;2.23;;;4.00;99.90;;;3.61;71.57;97090.31;5109317;28;20043;-39
2022/01/31 08:40:27;;;;;;;3.77;1.70;;;3.90;99.90;;;3.60;72.47;97064.13;5107658;28;20064;-36
2022/01/31 08:42:55;;;;;;;2.57;1.30;;;3.90;99.90;;;3.63;72.18;97062.06;5107054;28;20061;-36
2022/01/31 08:45:23;;;;;;;3.53;1.40;;;3.90;99.90;;;3.52;72.64;97062.13;5109153;28;20428;-36
2022/01/31 08:47:51;;;;;;;5.87;2.17;;;3.90;99.90;;;3.64;72.23;97031.28;5109704;28;20238;-39
2022/01/31 08:50:19;;;;;;;4.37;2.07;;;3.90;99.90;;;3.64;71.56;97037.38;5107785;28;20046;-39
2022/01/31 08:52:46;;;;;;;5.70;1.60;;;3.90;99.90;;;3.57;71.55;97035.41;5107663;28;20262;-39
2022/01/31 08:55:14;;;;;;;2.07;1.40;;;3.90;99.90;;;3.49;71.60;97036.91;5107584;28;20064;-39
2022/01/31 08:57:42;;;;;;;1.73;1.20;;;3.80;99.90;;;3.64;71.26;97034.75;5109006;28;20055;-39
2022/01/31 09:00:12;;;;;;;4.10;1.90;;;3.90;99.90;;;3.55;71.94;97036.38;5103826;28;20358;-39
2022/01/31 09:02:48;;;;;;;3.33;1.30;;;3.90;99.90;;;3.69;71.22;97024.66;5107377;28;20054;-39
2022/01/31 09:05:16;;;;;;;4.00;1.60;;;4.10;99.90;;;3.83;70.96;97027.91;5103916;28;20043;-39
2022/01/31 09:07:46;;;;;;;3.30;1.53;;;4.30;99.90;;;3.86;70.44;97019.75;5106325;28;20044;-39
2022/01/31 09:10:14;;;;;;;1.53;1.23;;;4.30;99.90;;;4.03;70.89;97027.00;5107372;28;20073;-39
2022/01/31 09:12:41;;;;;;;2.17;1.30;;;4.40;99.90;;;4.09;70.11;97020.31;5106710;28;20050;-39
2022/01/31 09:15:12;;;;;;;2.20;1.50;;;4.40;99.90;;;4.17;71.32;97022.28;5103660;28;20259;-39
2022/01/31 09:17:42;;;;;;;2.10;1.60;;;4.50;99.90;;;4.20;70.90;97022.00;5102981;28;20393;-39
2022/01/31 09:20:11;;;;;;;1.73;1.43;;;4.60;99.90;;;4.28;70.29;97017.72;5107196;28;20246;-39
2022/01/31 09:22:39;;;;;;;5.90;2.00;;;4.60;99.90;;;4.19;68.97;97017.69;5107567;28;20365;-39
2022/01/31 09:25:07;;;;;;;2.33;1.33;;;4.70;99.90;;;4.26;69.32;97032.81;5107036;28;20056;-39
2022/01/31 09:27:36;;;;;;;1.73;1.40;;;4.70;99.90;;;4.30;69.31;97026.34;5108236;28;20083;-37
2022/01/31 09:30:07;;;;;;;3.50;1.80;;;4.80;99.90;;;4.36;68.95;97010.94;5106467;28;20056;-36
2022/01/31 09:32:36;;;;;;;2.53;1.50;;;4.80;99.90;;;4.41;68.93;97014.00;5107523;28;20052;-36
2022/01/31 09:35:04;;;;;;;3.10;1.73;;;4.80;99.90;;;4.42;68.68;97057.81;5090163;28;20060;-37
2022/01/31 09:37:32;;;;;;;3.23;1.87;;;4.90;99.90;;;4.39;67.91;97006.22;5108462;28;20044;-37
2022/01/31 09:40:04;;;;;;;2.57;1.70;;;4.90;99.90;;;4.45;68.79;97016.19;5107064;28;20048;-37
2022/01/31 09:42:41;;;;;;;3.57;1.83;;;4.90;99.90;;;4.45;68.44;97010.09;5106782;28;20063;-37
2022/01/31 09:45:19;;;;;;;4.00;1.70;;;4.90;99.90;;;4.54;67.62;97001.38;5107292;28;20129;-36
2022/01/31 09:50:27;;;;;;;6.77;3.23;;;4.90;99.90;;;4.43;67.68;97033.13;5107150;28;20272;-39
2022/01/31 09:52:56;;;;;;;6.67;3.00;;;4.80;99.90;;;4.41;67.64;97008.72;5106517;28;20057;-39
2022/01/31 09:55:26;;;;;;;3.90;2.10;;;4.70;99.90;;;4.46;68.83;97030.22;5107397;28;20039;-39
2022/01/31 09:57:54;;;;;;;5.50;2.47;;;4.80;99.90;;;4.37;68.57;97031.88;5108178;28;20073;-39
2022/01/31 10:00:32;;;;;;;4.87;2.43;;;4.70;99.90;;;4.36;68.61;97037.28;5108045;28;20051;-39
2022/01/31 10:03:08;;;;;;;2.93;1.80;;;4.70;99.90;;;4.38;68.04;97032.72;5106530;28;20067;-39
2022/01/31 10:05:37;;;;;;;2.80;2.30;;;4.70;99.90;;;4.30;68.64;97013.16;5106853;28;20052;-39
2022/01/31 10:08:14;;;;;;;9.40;2.30;;;4.60;99.90;;;4.33;67.79;97007.59;5107422;28;20047;-38
2022/01/31 10:10:48;;;;;;;2.20;1.70;;;4.70;99.90;;;4.32;68.06;97015.63;5107378;28;20242;-38
2022/01/31 10:16:30;;;;;;;4.30;2.00;;;4.80;99.90;;;4.52;68.24;96998.88;5107086;28;20047;-36
2022/01/31 10:19:18;;;;;;;2.57;1.57;;;4.80;99.90;;;4.41;67.71;97021.91;5108055;28;20055;-36
2022/01/31 10:22:04;;;;;;;3.57;1.70;;;4.70;99.90;;;4.38;68.19;97017.75;5106606;28;20105;-36
2022/01/31 10:24:34;;;;;;;4.17;1.87;;;4.70;99.90;;;4.31;68.68;97028.00;5089301;28;20057;-36
2022/01/31 10:27:13;;;;;;;3.20;2.00;;;4.60;99.90;;;4.39;67.49;97019.41;5106075;28;20050;-35
2022/01/31 10:29:45;;;;;;;3.07;1.90;;;4.70;99.90;;;4.44;67.50;97076.97;5106532;28;20047;-36
2022/01/31 10:32:31;;;;;;;6.33;2.43;;;4.80;99.90;;;4.52;67.81;97033.13;5105395;28;20066;-38
2022/01/31 10:35:07;;;;;;;8.03;2.80;;;4.90;99.90;;;4.42;67.62;97024.41;5107508;28;20053;-38
2022/01/31 10:37:39;;;;;;;8.13;3.37;;;4.80;99.90;;;4.48;68.41;97013.31;5106857;28;20360;-38
2022/01/31 10:43:38;;;;;;;4.07;1.70;;;4.80;99.90;;;4.28;66.96;97017.72;5107061;28;20048;-38
2022/01/31 10:56:55;;;;;;;6.00;2.00;;;4.80;96.10;;;4.51;66.15;96996.38;5105949;28;20054;-39
2022/01/31 10:59:40;;;;;;;4.67;1.97;;;4.80;96.90;;;4.32;66.83;97034.09;5105984;28;20051;-38
2022/01/31 11:02:21;;;;;;;4.20;1.67;;;4.70;98.00;;;4.41;66.90;97028.00;5105909;28;20054;-38
2022/01/31 11:04:51;;;;;;;7.73;2.63;;;4.90;98.60;;;4.37;66.57;96996.78;5105785;28;20051;-38
2022/01/31 11:07:23;;;;;;;5.43;2.57;;;4.80;96.30;;;4.42;66.34;97000.69;5106332;28;20250;-38
2022/01/31 11:09:53;;;;;;;3.43;2.40;;;4.90;96.20;;;4.63;66.44;97003.16;5106854;28;20333;-38
2022/01/31 11:12:25;;;;;;;2.73;1.67;;;5.00;94.70;;;4.66;65.39;97012.59;5088127;28;20379;-36
2022/01/31 11:14:54;;;;;;;2.63;1.43;;;5.10;92.70;;;4.65;65.01;97016.19;5106663;28;20054;-36